sensor_id;sensor_type;location;lat;lon;timestamp;P1;durP1;ratioP1;P2;durP2;ratioP2
69750;SDS011;57335;52.288;6.056;2024-01-15T00:04:26;5.03;;;1.00;;
69750;SDS011;57335;52.288;6.056;2024-01-15T00:06:53;12.48;;;1.58;;
69750;SDS011;57335;52.288;6.056;2024-01-15T00:09:20;4.38;;;1.00;;
69750;SDS011;57335;52.288;6.056;2024-01-15T00:11:46;9.23;;;1.52;;
69750;SDS011;57335;52.288;6.056;2024-01-15T00:14:13;6.95;;;1.40;;
69750;SDS011;57335;52.288;6.056;2024-01-15T00:16:40;8.80;;;1.40;;
69750;SDS011;57335;52.288;6.056;2024-01-15T00:19:07;6.68;;;1.15;;
69750;SDS011;57335;52.288;6.056;2024-01-15T00:21:34;7.47;;;1.20;;
69750;SDS011;57335;52.288;6.056;2024-01-15T00:24:01;9.13;;;1.50;;
69750;SDS011;57335;52.288;6.056;2024-01-15T00:26:27;5.90;;;1.45;;
69750;SDS011;57335;52.288;6.056;2024-01-15T00:31:20;5.93;;;1.45;;
69750;SDS011;57335;52.288;6.056;2024-01-15T00:33:47;10.35;;;1.60;;
69750;SDS011;57335;52.288;6.056;2024-01-15T00:36:14;5.50;;;1.08;;
69750;SDS011;57335;52.288;6.056;2024-01-15T00:38:43;9.55;;;1.70;;
69750;SDS011;57335;52.288;6.056;2024-01-15T00:41:10;4.90;;;1.73;;
69750;SDS011;57335;52.288;6.056;2024-01-15T00:46:03;3.53;;;1.00;;
69750;SDS011;57335;52.288;6.056;2024-01-15T00:48:30;5.40;;;0.88;;
69750;SDS011;57335;52.288;6.056;2024-01-15T00:50:57;7.85;;;1.10;;
69750;SDS011;57335;52.288;6.056;2024-01-15T00:55:50;5.53;;;0.93;;
69750;SDS011;57335;52.288;6.056;2024-01-15T00:58:16;14.02;;;1.80;;
69750;SDS011;57335;52.288;6.056;2024-01-15T01:03:09;9.80;;;1.40;;
69750;SDS011;57335;52.288;6.056;2024-01-15T01:05:37;5.97;;;1.27;;
69750;SDS011;57335;52.288;6.056;2024-01-15T01:08:04;9.80;;;1.45;;
69750;SDS011;57335;52.288;6.056;2024-01-15T01:10:30;10.73;;;1.58;;
69750;SDS011;57335;52.288;6.056;2024-01-15T01:15:23;6.90;;;1.23;;
69750;SDS011;57335;52.288;6.056;2024-01-15T01:17:51;6.40;;;0.75;;
69750;SDS011;57335;52.288;6.056;2024-01-15T01:20:17;8.63;;;1.40;;
69750;SDS011;57335;52.288;6.056;2024-01-15T01:22:45;7.55;;;1.42;;
69750;SDS011;57335;52.288;6.056;2024-01-15T01:25:11;12.82;;;2.25;;
69750;SDS011;57335;52.288;6.056;2024-01-15T01:27:38;17.17;;;4.30;;
69750;SDS011;57335;52.288;6.056;2024-01-15T01:30:05;18.60;;;4.15;;
69750;SDS011;57335;52.288;6.056;2024-01-15T01:32:32;9.10;;;2.20;;
69750;SDS011;57335;52.288;6.056;2024-01-15T01:34:59;8.38;;;1.25;;
69750;SDS011;57335;52.288;6.056;2024-01-15T01:37:25;6.78;;;1.25;;
69750;SDS011;57335;52.288;6.056;2024-01-15T01:42:18;8.23;;;1.73;;
69750;SDS011;57335;52.288;6.056;2024-01-15T01:44:45;5.75;;;0.98;;
69750;SDS011;57335;52.288;6.056;2024-01-15T01:49:38;7.78;;;1.25;;
69750;SDS011;57335;52.288;6.056;2024-01-15T01:52:05;2.72;;;0.75;;
69750;SDS011;57335;52.288;6.056;2024-01-15T01:54:35;7.63;;;1.13;;
69750;SDS011;57335;52.288;6.056;2024-01-15T01:57:03;7.28;;;1.42;;
69750;SDS011;57335;52.288;6.056;2024-01-15T01:59:32;9.77;;;1.27;;
69750;SDS011;57335;52.288;6.056;2024-01-15T02:02:00;5.05;;;1.17;;
69750;SDS011;57335;52.288;6.056;2024-01-15T02:04:30;11.35;;;1.30;;
69750;SDS011;57335;52.288;6.056;2024-01-15T02:06:58;7.43;;;0.95;;
69750;SDS011;57335;52.288;6.056;2024-01-15T02:09:26;7.25;;;1.23;;
69750;SDS011;57335;52.288;6.056;2024-01-15T02:11:53;6.30;;;0.80;;
69750;SDS011;57335;52.288;6.056;2024-01-15T02:14:20;6.15;;;1.00;;
69750;SDS011;57335;52.288;6.056;2024-01-15T02:16:48;7.53;;;1.13;;
69750;SDS011;57335;52.288;6.056;2024-01-15T02:21:42;1.80;;;0.60;;
69750;SDS011;57335;52.288;6.056;2024-01-15T02:24:09;7.25;;;1.20;;
69750;SDS011;57335;52.288;6.056;2024-01-15T02:26:36;6.78;;;1.23;;
69750;SDS011;57335;52.288;6.056;2024-01-15T02:29:05;3.30;;;0.82;;
69750;SDS011;57335;52.288;6.056;2024-01-15T02:31:35;5.35;;;0.75;;
69750;SDS011;57335;52.288;6.056;2024-01-15T02:34:02;8.07;;;0.95;;
69750;SDS011;57335;52.288;6.056;2024-01-15T02:36:29;7.88;;;0.85;;
69750;SDS011;57335;52.288;6.056;2024-01-15T02:38:56;5.63;;;1.13;;
69750;SDS011;57335;52.288;6.056;2024-01-15T02:41:22;6.50;;;0.95;;
69750;SDS011;57335;52.288;6.056;2024-01-15T02:46:15;3.42;;;0.73;;
69750;SDS011;57335;52.288;6.056;2024-01-15T02:48:42;5.75;;;0.93;;
69750;SDS011;57335;52.288;6.056;2024-01-15T02:51:09;7.38;;;0.93;;
69750;SDS011;57335;52.288;6.056;2024-01-15T02:53:36;7.53;;;1.30;;
69750;SDS011;57335;52.288;6.056;2024-01-15T02:56:03;4.00;;;0.60;;
69750;SDS011;57335;52.288;6.056;2024-01-15T02:58:30;6.57;;;1.10;;
69750;SDS011;57335;52.288;6.056;2024-01-15T03:00:57;1.60;;;0.45;;
69750;SDS011;57335;52.288;6.056;2024-01-15T03:03:24;5.05;;;0.68;;
69750;SDS011;57335;52.288;6.056;2024-01-15T03:05:51;3.00;;;0.73;;
69750;SDS011;57335;52.288;6.056;2024-01-15T03:08:18;6.40;;;0.93;;
69750;SDS011;57335;52.288;6.056;2024-01-15T03:13:11;2.15;;;0.68;;
69750;SDS011;57335;52.288;6.056;2024-01-15T03:18:04;1.48;;;0.40;;
69750;SDS011;57335;52.288;6.056;2024-01-15T03:20:31;7.15;;;1.17;;
69750;SDS011;57335;52.288;6.056;2024-01-15T03:22:58;7.70;;;1.30;;
69750;SDS011;57335;52.288;6.056;2024-01-15T03:27:51;5.72;;;0.63;;
69750;SDS011;57335;52.288;6.056;2024-01-15T03:32:44;3.78;;;0.57;;
69750;SDS011;57335;52.288;6.056;2024-01-15T03:35:11;5.22;;;0.73;;
69750;SDS011;57335;52.288;6.056;2024-01-15T03:37:37;5.90;;;0.88;;
69750;SDS011;57335;52.288;6.056;2024-01-15T03:42:31;6.82;;;0.93;;
69750;SDS011;57335;52.288;6.056;2024-01-15T03:44:58;6.95;;;0.90;;
69750;SDS011;57335;52.288;6.056;2024-01-15T03:47:24;3.13;;;0.57;;
69750;SDS011;57335;52.288;6.056;2024-01-15T03:49:52;7.25;;;1.77;;
69750;SDS011;57335;52.288;6.056;2024-01-15T03:54:45;5.82;;;0.98;;
69750;SDS011;57335;52.288;6.056;2024-01-15T03:59:40;2.70;;;0.95;;
69750;SDS011;57335;52.288;6.056;2024-01-15T04:02:07;4.32;;;0.73;;
69750;SDS011;57335;52.288;6.056;2024-01-15T04:04:34;4.90;;;0.93;;
69750;SDS011;57335;52.288;6.056;2024-01-15T04:07:00;5.38;;;0.60;;
69750;SDS011;57335;52.288;6.056;2024-01-15T04:09:27;6.43;;;0.70;;
69750;SDS011;57335;52.288;6.056;2024-01-15T04:11:54;6.97;;;0.70;;
69750;SDS011;57335;52.288;6.056;2024-01-15T04:16:46;2.75;;;0.50;;
69750;SDS011;57335;52.288;6.056;2024-01-15T04:19:13;4.25;;;0.98;;
69750;SDS011;57335;52.288;6.056;2024-01-15T04:21:40;3.97;;;0.60;;
69750;SDS011;57335;52.288;6.056;2024-01-15T04:24:07;3.00;;;0.68;;
69750;SDS011;57335;52.288;6.056;2024-01-15T04:29:00;3.05;;;0.52;;
69750;SDS011;57335;52.288;6.056;2024-01-15T04:31:27;7.65;;;0.63;;
69750;SDS011;57335;52.288;6.056;2024-01-15T04:33:54;3.10;;;0.60;;
69750;SDS011;57335;52.288;6.056;2024-01-15T04:36:21;2.40;;;0.60;;
69750;SDS011;57335;52.288;6.056;2024-01-15T04:38:48;5.70;;;0.85;;
69750;SDS011;57335;52.288;6.056;2024-01-15T04:41:15;4.88;;;1.02;;
69750;SDS011;57335;52.288;6.056;2024-01-15T04:43:43;3.88;;;0.90;;
69750;SDS011;57335;52.288;6.056;2024-01-15T04:48:36;1.65;;;0.50;;
69750;SDS011;57335;52.288;6.056;2024-01-15T04:51:08;4.15;;;0.50;;
69750;SDS011;57335;52.288;6.056;2024-01-15T04:53:35;2.10;;;0.40;;
69750;SDS011;57335;52.288;6.056;2024-01-15T04:56:02;4.65;;;0.73;;
69750;SDS011;57335;52.288;6.056;2024-01-15T04:58:28;2.55;;;0.45;;
69750;SDS011;57335;52.288;6.056;2024-01-15T05:00:55;3.13;;;0.73;;
69750;SDS011;57335;52.288;6.056;2024-01-15T05:03:22;3.63;;;0.50;;
69750;SDS011;57335;52.288;6.056;2024-01-15T05:05:49;2.50;;;0.60;;
69750;SDS011;57335;52.288;6.056;2024-01-15T05:08:16;2.08;;;0.40;;
69750;SDS011;57335;52.288;6.056;2024-01-15T05:10:44;1.75;;;0.50;;
69750;SDS011;57335;52.288;6.056;2024-01-15T05:13:11;1.75;;;0.43;;
69750;SDS011;57335;52.288;6.056;2024-01-15T05:18:04;2.85;;;0.32;;
69750;SDS011;57335;52.288;6.056;2024-01-15T05:20:32;4.55;;;0.57;;
69750;SDS011;57335;52.288;6.056;2024-01-15T05:25:25;6.45;;;0.47;;
69750;SDS011;57335;52.288;6.056;2024-01-15T05:27:51;2.17;;;0.55;;
69750;SDS011;57335;52.288;6.056;2024-01-15T05:30:18;6.80;;;0.60;;
69750;SDS011;57335;52.288;6.056;2024-01-15T05:32:45;3.25;;;0.47;;
69750;SDS011;57335;52.288;6.056;2024-01-15T05:35:11;1.42;;;0.32;;
69750;SDS011;57335;52.288;6.056;2024-01-15T05:37:41;3.13;;;0.50;;
69750;SDS011;57335;52.288;6.056;2024-01-15T05:40:09;2.10;;;0.30;;
69750;SDS011;57335;52.288;6.056;2024-01-15T05:42:37;1.73;;;0.30;;
69750;SDS011;57335;52.288;6.056;2024-01-15T05:47:31;4.95;;;0.75;;
69750;SDS011;57335;52.288;6.056;2024-01-15T05:49:57;1.65;;;0.57;;
69750;SDS011;57335;52.288;6.056;2024-01-15T05:52:24;2.25;;;0.68;;
69750;SDS011;57335;52.288;6.056;2024-01-15T05:54:51;3.20;;;0.55;;
69750;SDS011;57335;52.288;6.056;2024-01-15T05:57:17;2.13;;;0.77;;
69750;SDS011;57335;52.288;6.056;2024-01-15T05:59:44;3.47;;;0.93;;
69750;SDS011;57335;52.288;6.056;2024-01-15T06:02:11;7.28;;;1.10;;
69750;SDS011;57335;52.288;6.056;2024-01-15T06:07:04;5.43;;;1.52;;
69750;SDS011;57335;52.288;6.056;2024-01-15T06:09:31;2.30;;;1.05;;
69750;SDS011;57335;52.288;6.056;2024-01-15T06:11:58;4.90;;;1.40;;
69750;SDS011;57335;52.288;6.056;2024-01-15T06:14:25;3.75;;;1.20;;
69750;SDS011;57335;52.288;6.056;2024-01-15T06:19:18;5.13;;;1.70;;
69750;SDS011;57335;52.288;6.056;2024-01-15T06:21:45;6.90;;;1.50;;
69750;SDS011;57335;52.288;6.056;2024-01-15T06:26:40;6.85;;;1.50;;
69750;SDS011;57335;52.288;6.056;2024-01-15T06:31:32;6.03;;;1.83;;
69750;SDS011;57335;52.288;6.056;2024-01-15T06:33:59;7.65;;;1.90;;
69750;SDS011;57335;52.288;6.056;2024-01-15T06:36:26;6.18;;;1.55;;
69750;SDS011;57335;52.288;6.056;2024-01-15T06:38:53;6.47;;;1.20;;
69750;SDS011;57335;52.288;6.056;2024-01-15T06:41:19;6.50;;;1.42;;
69750;SDS011;57335;52.288;6.056;2024-01-15T06:43:46;6.35;;;1.23;;
69750;SDS011;57335;52.288;6.056;2024-01-15T06:48:39;4.97;;;1.42;;
69750;SDS011;57335;52.288;6.056;2024-01-15T06:51:06;6.43;;;1.10;;
69750;SDS011;57335;52.288;6.056;2024-01-15T06:53:32;1.98;;;0.85;;
69750;SDS011;57335;52.288;6.056;2024-01-15T06:55:59;3.72;;;1.00;;
69750;SDS011;57335;52.288;6.056;2024-01-15T06:58:26;4.43;;;1.33;;
69750;SDS011;57335;52.288;6.056;2024-01-15T07:03:19;4.60;;;1.08;;
69750;SDS011;57335;52.288;6.056;2024-01-15T07:05:45;2.20;;;0.65;;
69750;SDS011;57335;52.288;6.056;2024-01-15T07:08:12;3.08;;;0.80;;
69750;SDS011;57335;52.288;6.056;2024-01-15T07:10:39;3.88;;;0.90;;
69750;SDS011;57335;52.288;6.056;2024-01-15T07:13:06;1.48;;;0.75;;
69750;SDS011;57335;52.288;6.056;2024-01-15T07:15:32;4.43;;;0.95;;
69750;SDS011;57335;52.288;6.056;2024-01-15T07:17:59;5.78;;;1.17;;
69750;SDS011;57335;52.288;6.056;2024-01-15T07:20:26;3.00;;;0.80;;
69750;SDS011;57335;52.288;6.056;2024-01-15T07:25:19;6.05;;;1.13;;
69750;SDS011;57335;52.288;6.056;2024-01-15T07:27:45;4.20;;;1.05;;
69750;SDS011;57335;52.288;6.056;2024-01-15T07:30:13;4.20;;;1.20;;
69750;SDS011;57335;52.288;6.056;2024-01-15T07:32:40;6.30;;;1.23;;
69750;SDS011;57335;52.288;6.056;2024-01-15T07:35:07;3.90;;;1.20;;
69750;SDS011;57335;52.288;6.056;2024-01-15T07:37:34;3.25;;;1.02;;
69750;SDS011;57335;52.288;6.056;2024-01-15T07:40:00;8.18;;;1.13;;
69750;SDS011;57335;52.288;6.056;2024-01-15T07:42:27;4.85;;;1.15;;
69750;SDS011;57335;52.288;6.056;2024-01-15T07:47:20;1.88;;;0.90;;
69750;SDS011;57335;52.288;6.056;2024-01-15T07:49:48;4.25;;;1.13;;
69750;SDS011;57335;52.288;6.056;2024-01-15T07:52:15;12.38;;;1.92;;
69750;SDS011;57335;52.288;6.056;2024-01-15T07:57:08;9.27;;;1.80;;
69750;SDS011;57335;52.288;6.056;2024-01-15T07:59:35;4.47;;;1.23;;
69750;SDS011;57335;52.288;6.056;2024-01-15T08:02:01;6.35;;;2.28;;
69750;SDS011;57335;52.288;6.056;2024-01-15T08:04:29;6.18;;;1.58;;
69750;SDS011;57335;52.288;6.056;2024-01-15T08:06:56;4.88;;;1.33;;
69750;SDS011;57335;52.288;6.056;2024-01-15T08:09:23;4.40;;;1.05;;
69750;SDS011;57335;52.288;6.056;2024-01-15T08:11:50;4.00;;;1.10;;
69750;SDS011;57335;52.288;6.056;2024-01-15T08:14:17;5.65;;;1.50;;
69750;SDS011;57335;52.288;6.056;2024-01-15T08:16:44;3.40;;;0.80;;
69750;SDS011;57335;52.288;6.056;2024-01-15T08:19:10;4.20;;;0.90;;
69750;SDS011;57335;52.288;6.056;2024-01-15T08:21:38;3.75;;;1.17;;
69750;SDS011;57335;52.288;6.056;2024-01-15T08:24:04;7.10;;;1.55;;
69750;SDS011;57335;52.288;6.056;2024-01-15T08:26:31;7.75;;;1.52;;
69750;SDS011;57335;52.288;6.056;2024-01-15T08:28:59;3.45;;;1.33;;
69750;SDS011;57335;52.288;6.056;2024-01-15T08:33:52;6.68;;;1.30;;
69750;SDS011;57335;52.288;6.056;2024-01-15T08:36:20;7.88;;;2.03;;
69750;SDS011;57335;52.288;6.056;2024-01-15T08:38:47;6.55;;;1.83;;
69750;SDS011;57335;52.288;6.056;2024-01-15T08:43:40;7.53;;;1.83;;
69750;SDS011;57335;52.288;6.056;2024-01-15T08:48:34;7.88;;;2.00;;
69750;SDS011;57335;52.288;6.056;2024-01-15T08:51:00;4.78;;;1.50;;
69750;SDS011;57335;52.288;6.056;2024-01-15T08:55:54;7.55;;;1.20;;
69750;SDS011;57335;52.288;6.056;2024-01-15T09:00:47;4.78;;;1.17;;
69750;SDS011;57335;52.288;6.056;2024-01-15T09:03:13;6.65;;;1.60;;
69750;SDS011;57335;52.288;6.056;2024-01-15T09:05:40;3.33;;;1.10;;
69750;SDS011;57335;52.288;6.056;2024-01-15T09:08:07;8.00;;;1.40;;
69750;SDS011;57335;52.288;6.056;2024-01-15T09:10:34;2.78;;;1.10;;
69750;SDS011;57335;52.288;6.056;2024-01-15T09:15:27;8.65;;;1.45;;
69750;SDS011;57335;52.288;6.056;2024-01-15T09:17:54;3.65;;;1.00;;
69750;SDS011;57335;52.288;6.056;2024-01-15T09:20:21;4.90;;;1.25;;
69750;SDS011;57335;52.288;6.056;2024-01-15T09:22:47;3.38;;;1.23;;
69750;SDS011;57335;52.288;6.056;2024-01-15T09:27:40;5.35;;;1.20;;
69750;SDS011;57335;52.288;6.056;2024-01-15T09:30:07;6.78;;;1.60;;
69750;SDS011;57335;52.288;6.056;2024-01-15T09:32:35;7.82;;;1.42;;
69750;SDS011;57335;52.288;6.056;2024-01-15T09:35:01;7.10;;;1.70;;
69750;SDS011;57335;52.288;6.056;2024-01-15T09:37:28;7.90;;;1.73;;
69750;SDS011;57335;52.288;6.056;2024-01-15T09:40:13;6.93;;;2.03;;
69750;SDS011;57335;52.288;6.056;2024-01-15T09:42:41;8.70;;;1.92;;
69750;SDS011;57335;52.288;6.056;2024-01-15T09:45:09;9.40;;;1.60;;
69750;SDS011;57335;52.288;6.056;2024-01-15T09:47:36;7.60;;;1.88;;
69750;SDS011;57335;52.288;6.056;2024-01-15T09:50:07;7.78;;;2.15;;
69750;SDS011;57335;52.288;6.056;2024-01-15T09:52:35;4.00;;;1.40;;
69750;SDS011;57335;52.288;6.056;2024-01-15T09:55:03;9.13;;;1.63;;
69750;SDS011;57335;52.288;6.056;2024-01-15T09:57:32;5.60;;;1.40;;
69750;SDS011;57335;52.288;6.056;2024-01-15T09:59:59;4.82;;;1.40;;
69750;SDS011;57335;52.288;6.056;2024-01-15T10:02:31;4.50;;;1.20;;
69750;SDS011;57335;52.288;6.056;2024-01-15T10:04:58;9.90;;;1.42;;
69750;SDS011;57335;52.288;6.056;2024-01-15T10:07:25;7.18;;;1.52;;
69750;SDS011;57335;52.288;6.056;2024-01-15T10:09:52;4.80;;;1.20;;
69750;SDS011;57335;52.288;6.056;2024-01-15T10:12:20;4.22;;;1.10;;
69750;SDS011;57335;52.288;6.056;2024-01-15T10:14:50;5.53;;;1.20;;
69750;SDS011;57335;52.288;6.056;2024-01-15T10:17:17;3.25;;;0.82;;
69750;SDS011;57335;52.288;6.056;2024-01-15T10:19:47;3.22;;;0.80;;
69750;SDS011;57335;52.288;6.056;2024-01-15T10:22:16;4.47;;;1.13;;
69750;SDS011;57335;52.288;6.056;2024-01-15T10:24:44;4.45;;;0.85;;
69750;SDS011;57335;52.288;6.056;2024-01-15T10:27:13;6.07;;;1.00;;
69750;SDS011;57335;52.288;6.056;2024-01-15T10:29:40;4.28;;;1.20;;
69750;SDS011;57335;52.288;6.056;2024-01-15T10:32:08;3.65;;;1.15;;
69750;SDS011;57335;52.288;6.056;2024-01-15T10:34:39;7.65;;;1.25;;
69750;SDS011;57335;52.288;6.056;2024-01-15T10:37:08;7.30;;;1.55;;
69750;SDS011;57335;52.288;6.056;2024-01-15T10:39:35;4.32;;;1.42;;
69750;SDS011;57335;52.288;6.056;2024-01-15T10:42:03;8.85;;;1.40;;
69750;SDS011;57335;52.288;6.056;2024-01-15T10:44:30;6.30;;;1.15;;
69750;SDS011;57335;52.288;6.056;2024-01-15T10:46:57;8.00;;;1.38;;
69750;SDS011;57335;52.288;6.056;2024-01-15T10:49:24;4.90;;;1.27;;
69750;SDS011;57335;52.288;6.056;2024-01-15T10:51:59;1.67;;;0.90;;
69750;SDS011;57335;52.288;6.056;2024-01-15T10:54:27;5.07;;;1.55;;
69750;SDS011;57335;52.288;6.056;2024-01-15T10:56:54;9.02;;;1.75;;
69750;SDS011;57335;52.288;6.056;2024-01-15T10:59:22;6.13;;;1.45;;
69750;SDS011;57335;52.288;6.056;2024-01-15T11:01:49;6.75;;;1.25;;
69750;SDS011;57335;52.288;6.056;2024-01-15T11:04:20;5.55;;;1.27;;
69750;SDS011;57335;52.288;6.056;2024-01-15T11:06:50;6.10;;;1.55;;
69750;SDS011;57335;52.288;6.056;2024-01-15T11:09:20;10.80;;;1.40;;
69750;SDS011;57335;52.288;6.056;2024-01-15T11:11:47;5.05;;;1.20;;
69750;SDS011;57335;52.288;6.056;2024-01-15T11:14:33;4.68;;;1.38;;
69750;SDS011;57335;52.288;6.056;2024-01-15T11:17:00;6.90;;;1.25;;
69750;SDS011;57335;52.288;6.056;2024-01-15T11:19:37;4.63;;;1.00;;
69750;SDS011;57335;52.288;6.056;2024-01-15T11:22:07;3.13;;;1.00;;
69750;SDS011;57335;52.288;6.056;2024-01-15T11:25:12;6.90;;;1.10;;
69750;SDS011;57335;52.288;6.056;2024-01-15T11:27:43;4.00;;;0.90;;
69750;SDS011;57335;52.288;6.056;2024-01-15T11:30:18;7.78;;;1.45;;
69750;SDS011;57335;52.288;6.056;2024-01-15T11:32:48;3.83;;;0.88;;
69750;SDS011;57335;52.288;6.056;2024-01-15T11:35:15;5.70;;;1.10;;
69750;SDS011;57335;52.288;6.056;2024-01-15T11:40:22;4.78;;;1.00;;
69750;SDS011;57335;52.288;6.056;2024-01-15T11:43:04;2.78;;;0.73;;
69750;SDS011;57335;52.288;6.056;2024-01-15T11:45:32;7.20;;;0.85;;
69750;SDS011;57335;52.288;6.056;2024-01-15T11:50:40;3.42;;;0.52;;
69750;SDS011;57335;52.288;6.056;2024-01-15T11:53:27;3.15;;;0.70;;
69750;SDS011;57335;52.288;6.056;2024-01-15T11:56:15;1.17;;;0.20;;
69750;SDS011;57335;52.288;6.056;2024-01-15T11:58:45;3.22;;;0.45;;
69750;SDS011;57335;52.288;6.056;2024-01-15T12:01:11;2.22;;;0.40;;
69750;SDS011;57335;52.288;6.056;2024-01-15T12:03:38;2.13;;;0.20;;
69750;SDS011;57335;52.288;6.056;2024-01-15T12:06:06;3.10;;;0.40;;
69750;SDS011;57335;52.288;6.056;2024-01-15T12:08:33;0.70;;;0.20;;
69750;SDS011;57335;52.288;6.056;2024-01-15T12:11:01;5.38;;;0.40;;
69750;SDS011;57335;52.288;6.056;2024-01-15T12:13:37;3.28;;;0.30;;
69750;SDS011;57335;52.288;6.056;2024-01-15T12:16:03;0.52;;;0.22;;
69750;SDS011;57335;52.288;6.056;2024-01-15T12:18:30;3.30;;;0.60;;
69750;SDS011;57335;52.288;6.056;2024-01-15T12:20:58;3.83;;;0.43;;
69750;SDS011;57335;52.288;6.056;2024-01-15T12:23:25;1.23;;;0.43;;
69750;SDS011;57335;52.288;6.056;2024-01-15T12:25:53;4.90;;;0.95;;
69750;SDS011;57335;52.288;6.056;2024-01-15T12:28:20;4.85;;;0.73;;
69750;SDS011;57335;52.288;6.056;2024-01-15T12:30:47;2.08;;;0.50;;
69750;SDS011;57335;52.288;6.056;2024-01-15T12:33:17;5.57;;;0.80;;
69750;SDS011;57335;52.288;6.056;2024-01-15T12:35:44;2.63;;;0.70;;
69750;SDS011;57335;52.288;6.056;2024-01-15T12:38:10;6.25;;;0.73;;
69750;SDS011;57335;52.288;6.056;2024-01-15T12:40:37;2.60;;;0.68;;
69750;SDS011;57335;52.288;6.056;2024-01-15T12:43:05;5.47;;;0.90;;
69750;SDS011;57335;52.288;6.056;2024-01-15T12:45:33;6.32;;;0.75;;
69750;SDS011;57335;52.288;6.056;2024-01-15T12:48:02;4.32;;;0.65;;
69750;SDS011;57335;52.288;6.056;2024-01-15T12:50:29;1.38;;;0.22;;
69750;SDS011;57335;52.288;6.056;2024-01-15T12:52:56;4.85;;;0.77;;
69750;SDS011;57335;52.288;6.056;2024-01-15T12:55:25;4.60;;;1.02;;
69750;SDS011;57335;52.288;6.056;2024-01-15T12:57:51;2.65;;;0.50;;
69750;SDS011;57335;52.288;6.056;2024-01-15T13:00:21;5.57;;;0.57;;
69750;SDS011;57335;52.288;6.056;2024-01-15T13:02:47;3.00;;;0.52;;
69750;SDS011;57335;52.288;6.056;2024-01-15T13:05:16;3.30;;;0.70;;
69750;SDS011;57335;52.288;6.056;2024-01-15T13:07:43;3.92;;;0.65;;
69750;SDS011;57335;52.288;6.056;2024-01-15T13:10:10;4.35;;;0.70;;
69750;SDS011;57335;52.288;6.056;2024-01-15T13:12:37;6.20;;;0.90;;
69750;SDS011;57335;52.288;6.056;2024-01-15T13:15:05;6.82;;;0.90;;
69750;SDS011;57335;52.288;6.056;2024-01-15T13:17:32;5.18;;;0.73;;
69750;SDS011;57335;52.288;6.056;2024-01-15T13:19:58;2.13;;;0.68;;
69750;SDS011;57335;52.288;6.056;2024-01-15T13:22:26;5.03;;;0.70;;
69750;SDS011;57335;52.288;6.056;2024-01-15T13:24:58;6.93;;;1.38;;
69750;SDS011;57335;52.288;6.056;2024-01-15T13:27:25;2.45;;;0.63;;
69750;SDS011;57335;52.288;6.056;2024-01-15T13:29:52;7.00;;;0.95;;
69750;SDS011;57335;52.288;6.056;2024-01-15T13:32:22;3.03;;;0.70;;
69750;SDS011;57335;52.288;6.056;2024-01-15T13:34:52;4.28;;;0.80;;
69750;SDS011;57335;52.288;6.056;2024-01-15T13:37:19;2.35;;;0.60;;
69750;SDS011;57335;52.288;6.056;2024-01-15T13:39:46;5.72;;;0.95;;
69750;SDS011;57335;52.288;6.056;2024-01-15T13:42:12;4.22;;;0.73;;
69750;SDS011;57335;52.288;6.056;2024-01-15T13:44:39;5.40;;;0.85;;
69750;SDS011;57335;52.288;6.056;2024-01-15T13:47:05;3.90;;;0.50;;
69750;SDS011;57335;52.288;6.056;2024-01-15T13:49:33;4.07;;;0.40;;
69750;SDS011;57335;52.288;6.056;2024-01-15T13:52:00;4.78;;;0.80;;
69750;SDS011;57335;52.288;6.056;2024-01-15T13:54:30;4.00;;;0.70;;
69750;SDS011;57335;52.288;6.056;2024-01-15T13:57:14;1.20;;;0.32;;
69750;SDS011;57335;52.288;6.056;2024-01-15T13:59:41;4.97;;;0.70;;
69750;SDS011;57335;52.288;6.056;2024-01-15T14:02:08;0.77;;;0.30;;
69750;SDS011;57335;52.288;6.056;2024-01-15T14:04:37;3.00;;;0.52;;
69750;SDS011;57335;52.288;6.056;2024-01-15T14:07:04;3.63;;;0.70;;
69750;SDS011;57335;52.288;6.056;2024-01-15T14:09:31;3.28;;;0.38;;
69750;SDS011;57335;52.288;6.056;2024-01-15T14:11:58;1.77;;;0.57;;
69750;SDS011;57335;52.288;6.056;2024-01-15T14:14:25;3.10;;;0.77;;
69750;SDS011;57335;52.288;6.056;2024-01-15T14:16:51;2.97;;;0.65;;
69750;SDS011;57335;52.288;6.056;2024-01-15T14:21:45;2.88;;;0.70;;
69750;SDS011;57335;52.288;6.056;2024-01-15T14:24:11;3.70;;;0.47;;
69750;SDS011;57335;52.288;6.056;2024-01-15T14:26:38;2.60;;;0.90;;
69750;SDS011;57335;52.288;6.056;2024-01-15T14:31:32;1.20;;;0.30;;
69750;SDS011;57335;52.288;6.056;2024-01-15T14:34:01;4.57;;;0.80;;
69750;SDS011;57335;52.288;6.056;2024-01-15T14:36:29;3.55;;;0.98;;
69750;SDS011;57335;52.288;6.056;2024-01-15T14:38:56;6.28;;;1.23;;
69750;SDS011;57335;52.288;6.056;2024-01-15T14:41:23;6.07;;;1.17;;
69750;SDS011;57335;52.288;6.056;2024-01-15T14:43:49;3.78;;;0.70;;
69750;SDS011;57335;52.288;6.056;2024-01-15T14:48:42;7.88;;;1.50;;
69750;SDS011;57335;52.288;6.056;2024-01-15T14:51:11;5.45;;;0.82;;
69750;SDS011;57335;52.288;6.056;2024-01-15T14:53:37;4.97;;;0.90;;
69750;SDS011;57335;52.288;6.056;2024-01-15T14:56:05;7.05;;;0.80;;
69750;SDS011;57335;52.288;6.056;2024-01-15T14:58:31;5.85;;;0.95;;
69750;SDS011;57335;52.288;6.056;2024-01-15T15:00:58;2.13;;;0.65;;
69750;SDS011;57335;52.288;6.056;2024-01-15T15:03:25;3.53;;;0.90;;
69750;SDS011;57335;52.288;6.056;2024-01-15T15:05:51;4.80;;;0.90;;
69750;SDS011;57335;52.288;6.056;2024-01-15T15:08:18;2.47;;;0.77;;
69750;SDS011;57335;52.288;6.056;2024-01-15T15:10:45;4.32;;;1.00;;
69750;SDS011;57335;52.288;6.056;2024-01-15T15:15:38;4.13;;;0.77;;
69750;SDS011;57335;52.288;6.056;2024-01-15T15:20:31;4.80;;;0.95;;
69750;SDS011;57335;52.288;6.056;2024-01-15T15:22:58;8.15;;;1.50;;
69750;SDS011;57335;52.288;6.056;2024-01-15T15:25:25;3.50;;;0.95;;
69750;SDS011;57335;52.288;6.056;2024-01-15T15:27:52;5.40;;;1.27;;
69750;SDS011;57335;52.288;6.056;2024-01-15T15:30:19;6.55;;;1.10;;
69750;SDS011;57335;52.288;6.056;2024-01-15T15:32:46;5.70;;;0.90;;
69750;SDS011;57335;52.288;6.056;2024-01-15T15:37:39;2.33;;;0.50;;
69750;SDS011;57335;52.288;6.056;2024-01-15T15:42:35;6.88;;;1.30;;
69750;SDS011;57335;52.288;6.056;2024-01-15T15:45:02;4.13;;;1.10;;
69750;SDS011;57335;52.288;6.056;2024-01-15T15:47:30;5.88;;;0.93;;
69750;SDS011;57335;52.288;6.056;2024-01-15T15:49:57;6.53;;;1.30;;
69750;SDS011;57335;52.288;6.056;2024-01-15T15:52:24;6.35;;;1.08;;
69750;SDS011;57335;52.288;6.056;2024-01-15T15:54:51;13.55;;;1.40;;
69750;SDS011;57335;52.288;6.056;2024-01-15T15:57:19;6.55;;;1.65;;
69750;SDS011;57335;52.288;6.056;2024-01-15T15:59:46;8.07;;;1.30;;
69750;SDS011;57335;52.288;6.056;2024-01-15T16:02:12;5.82;;;1.35;;
69750;SDS011;57335;52.288;6.056;2024-01-15T16:07:06;9.65;;;1.10;;
69750;SDS011;57335;52.288;6.056;2024-01-15T16:09:36;8.13;;;1.23;;
69750;SDS011;57335;52.288;6.056;2024-01-15T16:12:03;6.65;;;1.17;;
69750;SDS011;57335;52.288;6.056;2024-01-15T16:14:29;8.18;;;1.20;;
69750;SDS011;57335;52.288;6.056;2024-01-15T16:19:43;5.07;;;1.05;;
69750;SDS011;57335;52.288;6.056;2024-01-15T16:22:30;9.52;;;1.40;;
69750;SDS011;57335;52.288;6.056;2024-01-15T16:25:16;1.95;;;0.47;;
69750;SDS011;57335;52.288;6.056;2024-01-15T16:27:44;4.15;;;0.98;;
69750;SDS011;57335;52.288;6.056;2024-01-15T16:30:10;1.25;;;0.45;;
69750;SDS011;57335;52.288;6.056;2024-01-15T16:32:54;2.85;;;0.45;;
69750;SDS011;57335;52.288;6.056;2024-01-15T16:35:20;2.22;;;0.47;;
69750;SDS011;57335;52.288;6.056;2024-01-15T16:37:47;4.88;;;0.93;;
69750;SDS011;57335;52.288;6.056;2024-01-15T16:42:40;5.03;;;0.60;;
69750;SDS011;57335;52.288;6.056;2024-01-15T16:47:34;0.25;;;0.03;;
69750;SDS011;57335;52.288;6.056;2024-01-15T16:50:01;1.02;;;0.60;;
69750;SDS011;57335;52.288;6.056;2024-01-15T16:52:28;1.52;;;0.43;;
69750;SDS011;57335;52.288;6.056;2024-01-15T16:54:54;0.63;;;0.30;;
69750;SDS011;57335;52.288;6.056;2024-01-15T16:59:47;1.00;;;0.30;;
69750;SDS011;57335;52.288;6.056;2024-01-15T17:02:13;1.88;;;0.13;;